sensor_id;sensor_type;location;lat;lon;timestamp;pressure;altitude;pressure_sealevel;temperature;humidity
68712;BME280;55690;51.566;19.198;2024-03-02T00:03:12;101162.89;;;8.28;100.00
68712;BME280;55690;51.566;19.198;2024-03-02T00:07:18;101158.17;;;8.32;100.00
68712;BME280;55690;51.566;19.198;2024-03-02T00:11:24;101168.24;;;8.14;100.00
68712;BME280;55690;51.566;19.198;2024-03-02T00:19:45;101170.34;;;8.09;100.00
68712;BME280;55690;51.566;19.198;2024-03-02T00:23:48;101165.09;;;8.06;100.00
68712;BME280;55690;51.566;19.198;2024-03-02T00:27:52;101165.27;;;8.19;100.00
68712;BME280;55690;51.566;19.198;2024-03-02T00:31:55;101174.00;;;8.08;100.00
68712;BME280;55690;51.566;19.198;2024-03-02T00:36:02;101174.78;;;8.10;100.00
68712;BME280;55690;51.566;19.198;2024-03-02T00:40:08;101179.14;;;8.13;100.00
68712;BME280;55690;51.566;19.198;2024-03-02T00:44:15;101174.00;;;8.08;100.00
68712;BME280;55690;51.566;19.198;2024-03-02T00:48:20;101162.48;;;8.20;100.00
68712;BME280;55690;51.566;19.198;2024-03-02T00:52:26;101172.27;;;8.23;100.00
68712;BME280;55690;51.566;19.198;2024-03-02T00:56:33;101164.02;;;8.24;100.00
68712;BME280;55690;51.566;19.198;2024-03-02T01:00:38;101157.86;;;8.22;100.00
68712;BME280;55690;51.566;19.198;2024-03-02T01:04:44;101158.35;;;8.29;100.00
68712;BME280;55690;51.566;19.198;2024-03-02T01:08:50;101162.48;;;8.20;100.00
68712;BME280;55690;51.566;19.198;2024-03-02T01:12:57;101165.37;;;8.17;100.00
68712;BME280;55690;51.566;19.198;2024-03-02T01:17:04;101167.34;;;8.29;100.00
68712;BME280;55690;51.566;19.198;2024-03-02T01:21:10;101165.69;;;8.27;100.00
68712;BME280;55690;51.566;19.198;2024-03-02T01:25:16;101164.75;;;8.44;100.00
68712;BME280;55690;51.566;19.198;2024-03-02T01:29:22;101165.59;;;8.28;100.00
68712;BME280;55690;51.566;19.198;2024-03-02T01:33:28;101169.35;;;8.26;100.00
68712;BME280;55690;51.566;19.198;2024-03-02T01:37:35;101165.86;;;8.24;100.00
68712;BME280;55690;51.566;19.198;2024-03-02T01:41:41;101166.64;;;8.26;100.00
68712;BME280;55690;51.566;19.198;2024-03-02T01:45:47;101160.83;;;8.18;100.00
68712;BME280;55690;51.566;19.198;2024-03-02T01:49:53;101155.25;;;8.21;100.00
68712;BME280;55690;51.566;19.198;2024-03-02T01:53:59;101149.13;;;8.17;100.00
68712;BME280;55690;51.566;19.198;2024-03-02T01:58:05;101157.66;;;8.25;100.00
68712;BME280;55690;51.566;19.198;2024-03-02T02:02:12;101130.90;;;8.05;100.00
68712;BME280;55690;51.566;19.198;2024-03-02T02:06:18;101146.48;;;8.31;100.00
68712;BME280;55690;51.566;19.198;2024-03-02T02:10:24;101145.87;;;8.26;100.00
68712;BME280;55690;51.566;19.198;2024-03-02T02:14:30;101140.64;;;8.23;100.00
68712;BME280;55690;51.566;19.198;2024-03-02T02:18:36;101130.51;;;8.27;100.00
68712;BME280;55690;51.566;19.198;2024-03-02T02:26:56;101126.37;;;8.21;100.00
68712;BME280;55690;51.566;19.198;2024-03-02T02:30:57;101122.18;;;8.16;100.00
68712;BME280;55690;51.566;19.198;2024-03-02T02:35:01;101107.33;;;8.23;100.00
68712;BME280;55690;51.566;19.198;2024-03-02T02:39:10;101095.64;;;8.22;100.00
68712;BME280;55690;51.566;19.198;2024-03-02T02:43:13;101105.43;;;8.09;100.00
68712;BME280;55690;51.566;19.198;2024-03-02T02:47:20;101099.50;;;8.03;100.00
68712;BME280;55690;51.566;19.198;2024-03-02T02:51:26;101097.75;;;8.01;100.00
68712;BME280;55690;51.566;19.198;2024-03-02T02:55:32;101101.06;;;8.07;100.00
68712;BME280;55690;51.566;19.198;2024-03-02T02:59:38;101104.98;;;8.01;100.00
68712;BME280;55690;51.566;19.198;2024-03-02T03:03:45;101100.01;;;8.09;100.00
68712;BME280;55690;51.566;19.198;2024-03-02T03:07:50;101114.77;;;8.04;100.00
68712;BME280;55690;51.566;19.198;2024-03-02T03:11:57;101116.76;;;8.00;100.00
68712;BME280;55690;51.566;19.198;2024-03-02T03:16:03;101118.94;;;7.93;100.00
68712;BME280;55690;51.566;19.198;2024-03-02T03:20:10;101111.73;;;7.78;100.00
68712;BME280;55690;51.566;19.198;2024-03-02T03:24:15;101109.52;;;7.85;100.00
68712;BME280;55690;51.566;19.198;2024-03-02T03:28:21;101107.52;;;7.88;100.00
68712;BME280;55690;51.566;19.198;2024-03-02T03:32:28;101100.45;;;7.86;100.00
68712;BME280;55690;51.566;19.198;2024-03-02T03:36:34;101105.16;;;7.98;100.00
68712;BME280;55690;51.566;19.198;2024-03-02T03:40:40;101093.91;;;8.06;100.00
68712;BME280;55690;51.566;19.198;2024-03-02T03:44:46;101095.74;;;8.05;100.00
68712;BME280;55690;51.566;19.198;2024-03-02T03:48:52;101100.18;;;7.90;100.00
68712;BME280;55690;51.566;19.198;2024-03-02T03:52:59;101086.66;;;8.06;100.00
68712;BME280;55690;51.566;19.198;2024-03-02T03:57:05;101079.34;;;8.08;100.00
68712;BME280;55690;51.566;19.198;2024-03-02T04:01:11;101098.79;;;7.99;100.00
68712;BME280;55690;51.566;19.198;2024-03-02T04:05:17;101095.47;;;8.10;100.00
68712;BME280;55690;51.566;19.198;2024-03-02T04:09:23;101093.03;;;8.05;100.00
68712;BME280;55690;51.566;19.198;2024-03-02T04:13:29;101078.64;;;7.89;100.00
68712;BME280;55690;51.566;19.198;2024-03-02T04:17:36;101093.55;;;8.12;100.00
68712;BME280;55690;51.566;19.198;2024-03-02T04:21:42;101100.80;;;8.11;100.00
68712;BME280;55690;51.566;19.198;2024-03-02T04:25:48;101099.50;;;8.03;100.00
68712;BME280;55690;51.566;19.198;2024-03-02T04:29:54;101095.82;;;8.04;100.00
68712;BME280;55690;51.566;19.198;2024-03-02T04:34:00;101104.37;;;7.96;100.00
68712;BME280;55690;51.566;19.198;2024-03-02T04:38:06;101095.56;;;8.08;100.00
68712;BME280;55690;51.566;19.198;2024-03-02T04:42:13;101094.00;;;7.88;100.00
68712;BME280;55690;51.566;19.198;2024-03-02T04:46:19;101107.34;;;7.91;100.00
68712;BME280;55690;51.566;19.198;2024-03-02T04:50:25;101111.09;;;7.89;100.00
68712;BME280;55690;51.566;19.198;2024-03-02T04:54:32;101104.37;;;7.96;100.00
68712;BME280;55690;51.566;19.198;2024-03-02T04:58:37;101108.30;;;7.90;100.00
68712;BME280;55690;51.566;19.198;2024-03-02T05:02:43;101115.80;;;7.85;100.00
68712;BME280;55690;51.566;19.198;2024-03-02T05:06:50;101121.30;;;7.99;100.00
68712;BME280;55690;51.566;19.198;2024-03-02T05:10:56;101116.41;;;7.90;100.00
68712;BME280;55690;51.566;19.198;2024-03-02T05:15:07;101110.05;;;7.91;100.00
68712;BME280;55690;51.566;19.198;2024-03-02T05:19:11;101115.45;;;7.91;100.00
68712;BME280;55690;51.566;19.198;2024-03-02T05:23:14;101115.63;;;7.88;100.00
68712;BME280;55690;51.566;19.198;2024-03-02T05:27:21;101120.24;;;7.86;100.00
68712;BME280;55690;51.566;19.198;2024-03-02T05:31:27;101124.09;;;7.66;100.00
68712;BME280;55690;51.566;19.198;2024-03-02T05:35:33;101126.29;;;7.76;100.00
68712;BME280;55690;51.566;19.198;2024-03-02T05:39:39;101124.63;;;7.73;100.00
68712;BME280;55690;51.566;19.198;2024-03-02T05:43:45;101128.27;;;7.88;100.00
68712;BME280;55690;51.566;19.198;2024-03-02T05:47:52;101122.45;;;7.80;100.00
68712;BME280;55690;51.566;19.198;2024-03-02T05:51:58;101126.00;;;7.80;100.00
68712;BME280;55690;51.566;19.198;2024-03-02T05:56:05;101134.89;;;7.82;100.00
68712;BME280;55690;51.566;19.198;2024-03-02T06:00:11;101135.69;;;7.84;100.00
68712;BME280;55690;51.566;19.198;2024-03-02T06:04:17;101140.84;;;7.73;100.00
68712;BME280;55690;51.566;19.198;2024-03-02T06:08:23;101135.23;;;7.60;100.00
68712;BME280;55690;51.566;19.198;2024-03-02T06:12:31;101137.66;;;7.49;100.00
68712;BME280;55690;51.566;19.198;2024-03-02T06:16:35;101149.18;;;7.53;100.00
68712;BME280;55690;51.566;19.198;2024-03-02T06:20:41;101147.42;;;7.52;100.00
68712;BME280;55690;51.566;19.198;2024-03-02T06:24:47;101153.49;;;7.40;100.00
68712;BME280;55690;51.566;19.198;2024-03-02T06:28:53;101148.25;;;7.37;100.00
68712;BME280;55690;51.566;19.198;2024-03-02T06:33:00;101150.20;;;7.34;100.00
68712;BME280;55690;51.566;19.198;2024-03-02T06:37:06;101146.54;;;7.36;100.00
68712;BME280;55690;51.566;19.198;2024-03-02T06:41:12;101163.63;;;7.36;100.00
68712;BME280;55690;51.566;19.198;2024-03-02T06:45:18;101158.95;;;7.55;100.00
68712;BME280;55690;51.566;19.198;2024-03-02T06:49:24;101174.65;;;7.64;100.00
68712;BME280;55690;51.566;19.198;2024-03-02T06:53:31;101188.96;;;7.66;100.00
68712;BME280;55690;51.566;19.198;2024-03-02T06:57:37;101179.64;;;7.72;100.00
68712;BME280;55690;51.566;19.198;2024-03-02T07:01:43;101180.52;;;7.73;100.00
68712;BME280;55690;51.566;19.198;2024-03-02T07:05:49;101182.35;;;7.72;100.00
68712;BME280;55690;51.566;19.198;2024-03-02T07:09:55;101176.32;;;7.83;100.00
68712;BME280;55690;51.566;19.198;2024-03-02T07:14:01;101182.88;;;7.79;100.00
68712;BME280;55690;51.566;19.198;2024-03-02T07:18:08;101197.70;;;7.72;100.00
68712;BME280;55690;51.566;19.198;2024-03-02T07:22:14;101189.67;;;7.70;100.00
68712;BME280;55690;51.566;19.198;2024-03-02T07:26:20;101199.52;;;7.87;100.00
68712;BME280;55690;51.566;19.198;2024-03-02T07:30:26;101197.02;;;7.99;100.00
68712;BME280;55690;51.566;19.198;2024-03-02T07:34:32;101209.50;;;8.02;100.00
68712;BME280;55690;51.566;19.198;2024-03-02T07:38:39;101211.08;;;8.06;100.00
68712;BME280;55690;51.566;19.198;2024-03-02T07:42:45;101203.55;;;8.27;100.00
68712;BME280;55690;51.566;19.198;2024-03-02T07:46:51;101198.85;;;8.30;100.00
68712;BME280;55690;51.566;19.198;2024-03-02T07:50:57;101201.48;;;8.32;100.00
68712;BME280;55690;51.566;19.198;2024-03-02T07:55:04;101205.39;;;8.26;100.00
68712;BME280;55690;51.566;19.198;2024-03-02T07:59:10;101222.10;;;8.50;100.00
68712;BME280;55690;51.566;19.198;2024-03-02T08:03:16;101218.87;;;8.59;100.00
68712;BME280;55690;51.566;19.198;2024-03-02T08:07:22;101214.27;;;8.76;100.00
68712;BME280;55690;51.566;19.198;2024-03-02T08:11:28;101212.33;;;8.93;100.00
68712;BME280;55690;51.566;19.198;2024-03-02T08:15:34;101217.45;;;9.28;100.00
68712;BME280;55690;51.566;19.198;2024-03-02T08:19:40;101219.19;;;9.29;100.00
68712;BME280;55690;51.566;19.198;2024-03-02T08:23:46;101218.16;;;9.02;100.00
68712;BME280;55690;51.566;19.198;2024-03-02T08:27:53;101216.44;;;9.15;100.00
68712;BME280;55690;51.566;19.198;2024-03-02T08:31:59;101211.84;;;9.31;100.00
68712;BME280;55690;51.566;19.198;2024-03-02T08:36:06;101214.48;;;9.47;100.00
68712;BME280;55690;51.566;19.198;2024-03-02T08:40:12;101219.19;;;9.29;100.00
68712;BME280;55690;51.566;19.198;2024-03-02T08:44:17;101213.24;;;9.52;100.00
68712;BME280;55690;51.566;19.198;2024-03-02T08:48:24;101201.51;;;9.66;100.00
68712;BME280;55690;51.566;19.198;2024-03-02T08:52:30;101209.36;;;9.85;100.00
68712;BME280;55690;51.566;19.198;2024-03-02T08:56:36;101209.56;;;9.82;100.00
68712;BME280;55690;51.566;19.198;2024-03-02T09:00:43;101208.98;;;9.91;100.00
68712;BME280;55690;51.566;19.198;2024-03-02T09:04:49;101212.82;;;10.01;100.00
68712;BME280;55690;51.566;19.198;2024-03-02T09:08:54;101212.92;;;9.99;100.00
68712;BME280;55690;51.566;19.198;2024-03-02T09:13:01;101200.21;;;10.14;100.00
68712;BME280;55690;51.566;19.198;2024-03-02T09:17:07;101203.35;;;10.49;100.00
68712;BME280;55690;51.566;19.198;2024-03-02T09:21:13;101204.95;;;10.66;100.00
68712;BME280;55690;51.566;19.198;2024-03-02T09:25:19;101209.36;;;10.81;100.00
68712;BME280;55690;51.566;19.198;2024-03-02T09:29:25;101213.74;;;10.43;100.00
68712;BME280;55690;51.566;19.198;2024-03-02T09:33:31;101215.20;;;10.75;100.00
68712;BME280;55690;51.566;19.198;2024-03-02T09:37:38;101211.93;;;10.70;100.00
68712;BME280;55690;51.566;19.198;2024-03-02T09:41:44;101205.82;;;10.66;100.00
68712;BME280;55690;51.566;19.198;2024-03-02T09:45:50;101204.15;;;10.91;100.00
68712;BME280;55690;51.566;19.198;2024-03-02T09:49:56;101202.82;;;10.84;100.00
68712;BME280;55690;51.566;19.198;2024-03-02T09:54:03;101209.30;;;10.69;100.00
68712;BME280;55690;51.566;19.198;2024-03-02T09:58:08;101202.70;;;11.12;100.00
68712;BME280;55690;51.566;19.198;2024-03-02T10:02:15;101205.16;;;11.03;100.00
68712;BME280;55690;51.566;19.198;2024-03-02T10:06:23;101203.11;;;11.06;100.00
68712;BME280;55690;51.566;19.198;2024-03-02T10:10:35;101191.84;;;11.38;100.00
68712;BME280;55690;51.566;19.198;2024-03-02T10:14:41;101187.91;;;11.29;100.00
68712;BME280;55690;51.566;19.198;2024-03-02T10:18:43;101179.12;;;11.38;100.00
68712;BME280;55690;51.566;19.198;2024-03-02T10:26:22;101184.24;;;11.68;100.00
68712;BME280;55690;51.566;19.198;2024-03-02T10:30:28;101179.24;;;11.62;100.00
68712;BME280;55690;51.566;19.198;2024-03-02T10:34:35;101168.21;;;11.76;100.00
68712;BME280;55690;51.566;19.198;2024-03-02T10:38:41;101173.80;;;11.62;100.00
68712;BME280;55690;51.566;19.198;2024-03-02T10:42:47;101176.74;;;11.59;100.00
68712;BME280;55690;51.566;19.198;2024-03-02T10:46:53;101176.19;;;11.66;100.00
68712;BME280;55690;51.566;19.198;2024-03-02T10:50:59;101180.95;;;11.76;100.00
68712;BME280;55690;51.566;19.198;2024-03-02T10:55:09;101172.58;;;12.04;100.00
68712;BME280;55690;51.566;19.198;2024-03-02T11:03:24;101162.15;;;11.85;100.00
68712;BME280;55690;51.566;19.198;2024-03-02T11:07:27;101156.82;;;11.84;100.00
68712;BME280;55690;51.566;19.198;2024-03-02T11:11:32;101159.98;;;11.78;100.00
68712;BME280;55690;51.566;19.198;2024-03-02T11:15:40;101148.65;;;11.84;100.00
68712;BME280;55690;51.566;19.198;2024-03-02T11:19:44;101158.20;;;12.02;100.00
68712;BME280;55690;51.566;19.198;2024-03-02T11:23:48;101169.09;;;12.02;100.00
68712;BME280;55690;51.566;19.198;2024-03-02T11:28:03;101161.92;;;11.88;100.00
68712;BME280;55690;51.566;19.198;2024-03-02T11:32:13;101161.39;;;11.83;100.00
68712;BME280;55690;51.566;19.198;2024-03-02T11:36:14;101161.91;;;12.01;100.00
68712;BME280;55690;51.566;19.198;2024-03-02T11:40:22;101166.30;;;11.65;100.00
68712;BME280;55690;51.566;19.198;2024-03-02T11:44:29;101172.92;;;11.49;100.00
68712;BME280;55690;51.566;19.198;2024-03-02T11:48:36;101168.03;;;11.79;100.00
68712;BME280;55690;51.566;19.198;2024-03-02T11:52:41;101166.39;;;11.89;100.00
68712;BME280;55690;51.566;19.198;2024-03-02T11:56:44;101168.32;;;11.75;100.00
68712;BME280;55690;51.566;19.198;2024-03-02T12:00:45;101160.52;;;11.57;100.00
68712;BME280;55690;51.566;19.198;2024-03-02T12:04:50;101158.63;;;11.71;100.00
68712;BME280;55690;51.566;19.198;2024-03-02T12:08:58;101161.25;;;11.72;100.00
68712;BME280;55690;51.566;19.198;2024-03-02T12:13:04;101170.10;;;11.63;100.00
68712;BME280;55690;51.566;19.198;2024-03-02T12:17:09;101164.97;;;11.84;100.00
68712;BME280;55690;51.566;19.198;2024-03-02T12:21:15;101157.91;;;11.81;100.00
68712;BME280;55690;51.566;19.198;2024-03-02T12:25:23;101152.02;;;11.87;100.00
68712;BME280;55690;51.566;19.198;2024-03-02T12:29:27;101156.15;;;11.93;100.00
68712;BME280;55690;51.566;19.198;2024-03-02T12:33:33;101147.53;;;11.74;100.00
68712;BME280;55690;51.566;19.198;2024-03-02T12:41:51;101156.48;;;11.88;100.00
68712;BME280;55690;51.566;19.198;2024-03-02T12:45:56;101155.62;;;11.88;100.00
68712;BME280;55690;51.566;19.198;2024-03-02T12:49:58;101149.72;;;11.94;100.00
68712;BME280;55690;51.566;19.198;2024-03-02T12:54:04;101147.43;;;11.75;100.00
68712;BME280;55690;51.566;19.198;2024-03-02T12:58:18;101144.71;;;11.75;100.00
68712;BME280;55690;51.566;19.198;2024-03-02T13:02:20;101142.96;;;11.99;100.00
68712;BME280;55690;51.566;19.198;2024-03-02T13:06:24;101142.63;;;12.04;100.00
68712;BME280;55690;51.566;19.198;2024-03-02T13:10:29;101147.78;;;12.20;100.00
68712;BME280;55690;51.566;19.198;2024-03-02T13:14:35;101141.77;;;12.27;100.00
68712;BME280;55690;51.566;19.198;2024-03-02T13:18:42;101139.46;;;12.10;100.00
68712;BME280;55690;51.566;19.198;2024-03-02T13:22:47;101137.95;;;12.06;100.00
68712;BME280;55690;51.566;19.198;2024-03-02T13:26:54;101136.66;;;11.99;100.00
68712;BME280;55690;51.566;19.198;2024-03-02T13:31:00;101132.84;;;12.02;100.00
68712;BME280;55690;51.566;19.198;2024-03-02T13:35:06;101140.55;;;12.08;100.00
68712;BME280;55690;51.566;19.198;2024-03-02T13:39:12;101131.03;;;11.64;100.00
68712;BME280;55690;51.566;19.198;2024-03-02T13:43:18;101130.71;;;11.69;100.00
68712;BME280;55690;51.566;19.198;2024-03-02T13:47:24;101126.14;;;11.69;100.00
68712;BME280;55690;51.566;19.198;2024-03-02T13:51:31;101121.31;;;11.73;100.00
68712;BME280;55690;51.566;19.198;2024-03-02T13:55:37;101124.59;;;11.90;100.00
68712;BME280;55690;51.566;19.198;2024-03-02T13:59:43;101125.42;;;12.04;100.00
68712;BME280;55690;51.566;19.198;2024-03-02T14:03:49;101128.51;;;11.86;100.00
68712;BME280;55690;51.566;19.198;2024-03-02T14:07:56;101123.28;;;11.71;100.00
68712;BME280;55690;51.566;19.198;2024-03-02T14:12:02;101127.23;;;11.66;100.00
68712;BME280;55690;51.566;19.198;2024-03-02T14:16:08;101141.38;;;11.59;100.00
68712;BME280;55690;51.566;19.198;2024-03-02T14:20:14;101127.45;;;11.63;100.00
68712;BME280;55690;51.566;19.198;2024-03-02T14:24:21;101131.03;;;11.64;100.00
68712;BME280;55690;51.566;19.198;2024-03-02T14:28:26;101132.13;;;11.61;100.00
68712;BME280;55690;51.566;19.198;2024-03-02T14:32:32;101132.02;;;11.63;100.00
68712;BME280;55690;51.566;19.198;2024-03-02T14:36:39;101133.98;;;11.48;100.00
68712;BME280;55690;51.566;19.198;2024-03-02T14:40:45;101128.98;;;11.42;100.00
68712;BME280;55690;51.566;19.198;2024-03-02T14:44:51;101126.91;;;11.46;100.00
68712;BME280;55690;51.566;19.198;2024-03-02T14:48:57;101125.60;;;11.39;100.00
68712;BME280;55690;51.566;19.198;2024-03-02T14:53:03;101127.89;;;11.45;100.00
68712;BME280;55690;51.566;19.198;2024-03-02T14:57:09;101130.28;;;11.49;100.00
68712;BME280;55690;51.566;19.198;2024-03-02T15:01:16;101127.34;;;11.40;100.00
68712;BME280;55690;51.566;19.198;2024-03-02T15:05:22;101131.37;;;11.47;100.00
68712;BME280;55690;51.566;19.198;2024-03-02T15:09:29;101137.46;;;11.38;100.00
68712;BME280;55690;51.566;19.198;2024-03-02T15:13:34;101130.06;;;11.27;100.00
68712;BME280;55690;51.566;19.198;2024-03-02T15:17:40;101129.20;;;11.39;100.00
68712;BME280;55690;51.566;19.198;2024-03-02T15:21:46;101122.34;;;11.33;100.00
68712;BME280;55690;51.566;19.198;2024-03-02T15:25:53;101114.41;;;11.05;100.00
68712;BME280;55690;51.566;19.198;2024-03-02T15:30:00;101132.26;;;11.22;100.00
68712;BME280;55690;51.566;19.198;2024-03-02T15:34:06;101134.00;;;11.23;100.00
68712;BME280;55690;51.566;19.198;2024-03-02T15:38:12;101136.91;;;11.32;100.00
68712;BME280;55690;51.566;19.198;2024-03-02T15:42:18;101135.62;;;11.38;100.00
68712;BME280;55690;51.566;19.198;2024-03-02T15:46:24;101129.63;;;11.33;100.00
68712;BME280;55690;51.566;19.198;2024-03-02T15:50:31;101134.00;;;11.23;100.00
68712;BME280;55690;51.566;19.198;2024-03-02T15:54:37;101127.23;;;11.28;100.00
68712;BME280;55690;51.566;19.198;2024-03-02T15:58:43;101126.82;;;11.22;100.00
68712;BME280;55690;51.566;19.198;2024-03-02T16:02:49;101126.37;;;11.28;100.00
68712;BME280;55690;51.566;19.198;2024-03-02T16:06:56;101124.32;;;11.19;100.00
68712;BME280;55690;51.566;19.198;2024-03-02T16:11:02;101124.06;;;10.96;100.00
68712;BME280;55690;51.566;19.198;2024-03-02T16:15:08;101129.29;;;10.99;100.00
68712;BME280;55690;51.566;19.198;2024-03-02T16:19:14;101134.93;;;10.96;100.00
68712;BME280;55690;51.566;19.198;2024-03-02T16:23:20;101136.88;;;10.94;100.00
68712;BME280;55690;51.566;19.198;2024-03-02T16:27:26;101148.48;;;10.84;100.00
68712;BME280;55690;51.566;19.198;2024-03-02T16:31:33;101150.88;;;10.76;100.00
68712;BME280;55690;51.566;19.198;2024-03-02T16:35:39;101153.34;;;10.66;100.00
68712;BME280;55690;51.566;19.198;2024-03-02T16:39:46;101151.05;;;10.60;100.00
68712;BME280;55690;51.566;19.198;2024-03-02T16:43:52;101155.45;;;10.48;100.00
68712;BME280;55690;51.566;19.198;2024-03-02T16:47:58;101167.59;;;10.43;100.00
68712;BME280;55690;51.566;19.198;2024-03-02T16:52:04;101170.47;;;10.27;100.00
68712;BME280;55690;51.566;19.198;2024-03-02T16:56:10;101176.55;;;10.16;100.00
68712;BME280;55690;51.566;19.198;2024-03-02T17:00:17;101181.32;;;10.13;100.00
68712;BME280;55690;51.566;19.198;2024-03-02T17:04:23;101178.40;;;10.16;100.00
68712;BME280;55690;51.566;19.198;2024-03-02T17:08:29;101184.34;;;10.22;100.00
68712;BME280;55690;51.566;19.198;2024-03-02T17:12:35;101184.70;;;10.16;100.00
68712;BME280;55690;51.566;19.198;2024-03-02T17:16:41;101188.59;;;10.12;100.00
68712;BME280;55690;51.566;19.198;2024-03-02T17:20:47;101184.41;;;10.07;100.00
68712;BME280;55690;51.566;19.198;2024-03-02T17:24:53;101190.25;;;10.00;100.00
68712;BME280;55690;51.566;19.198;2024-03-02T17:29:00;101191.15;;;9.87;100.00
68712;BME280;55690;51.566;19.198;2024-03-02T17:33:06;101189.95;;;10.05;100.00
68712;BME280;55690;51.566;19.198;2024-03-02T17:37:12;101184.52;;;10.05;100.00
68712;BME280;55690;51.566;19.198;2024-03-02T17:41:18;101188.60;;;9.98;100.00
68712;BME280;55690;51.566;19.198;2024-03-02T17:45:24;101179.87;;;10.07;100.00
68712;BME280;55690;51.566;19.198;2024-03-02T17:49:31;101179.20;;;10.04;100.00
68712;BME280;55690;51.566;19.198;2024-03-02T17:53:37;101185.68;;;10.01;100.00
68712;BME280;55690;51.566;19.198;2024-03-02T17:57:43;101187.73;;;9.97;100.00
68712;BME280;55690;51.566;19.198;2024-03-02T18:01:49;101186.56;;;10.01;100.00
68712;BME280;55690;51.566;19.198;2024-03-02T18:05:55;101185.01;;;9.97;100.00
68712;BME280;55690;51.566;19.198;2024-03-02T18:10:05;101175.55;;;9.76;100.00
68712;BME280;55690;51.566;19.198;2024-03-02T18:14:08;101184.65;;;9.61;100.00
68712;BME280;55690;51.566;19.198;2024-03-02T18:18:14;101180.88;;;9.63;100.00
68712;BME280;55690;51.566;19.198;2024-03-02T18:22:20;101184.94;;;9.56;100.00
68712;BME280;55690;51.566;19.198;2024-03-02T18:26:26;101187.47;;;9.45;100.00
68712;BME280;55690;51.566;19.198;2024-03-02T18:30:32;101176.16;;;9.53;100.00
68712;BME280;55690;51.566;19.198;2024-03-02T18:34:39;101184.86;;;9.44;100.00
68712;BME280;55690;51.566;19.198;2024-03-02T18:38:45;101186.13;;;9.52;100.00
68712;BME280;55690;51.566;19.198;2024-03-02T18:42:51;101185.54;;;9.47;100.00
68712;BME280;55690;51.566;19.198;2024-03-02T18:46:57;101193.09;;;9.42;100.00
68712;BME280;55690;51.566;19.198;2024-03-02T18:51:07;101177.59;;;9.44;100.00
68712;BME280;55690;51.566;19.198;2024-03-02T18:55:10;101193.95;;;9.43;100.00
68712;BME280;55690;51.566;19.198;2024-03-02T18:59:16;101186.38;;;9.33;100.00
68712;BME280;55690;51.566;19.198;2024-03-02T19:03:22;101195.39;;;9.34;100.00
68712;BME280;55690;51.566;19.198;2024-03-02T19:07:28;101185.79;;;9.28;100.00
68712;BME280;55690;51.566;19.198;2024-03-02T19:11:34;101192.46;;;9.23;100.00
68712;BME280;55690;51.566;19.198;2024-03-02T19:15:41;101190.35;;;9.28;100.00
68712;BME280;55690;51.566;19.198;2024-03-02T19:19:47;101186.09;;;9.24;100.00
68712;BME280;55690;51.566;19.198;2024-03-02T19:23:53;101194.58;;;9.18;100.00
68712;BME280;55690;51.566;19.198;2024-03-02T19:27:59;101195.91;;;9.11;100.00
68712;BME280;55690;51.566;19.198;2024-03-02T19:32:05;101199.81;;;9.21;100.00
68712;BME280;55690;51.566;19.198;2024-03-02T19:36:12;101200.78;;;9.20;100.00
68712;BME280;55690;51.566;19.198;2024-03-02T19:40:17;101199.81;;;9.21;100.00
68712;BME280;55690;51.566;19.198;2024-03-02T19:44:24;101193.05;;;9.28;100.00
68712;BME280;55690;51.566;19.198;2024-03-02T19:48:32;101201.05;;;9.15;100.00
68712;BME280;55690;51.566;19.198;2024-03-02T19:52:36;101198.62;;;9.11;100.00
68712;BME280;55690;51.566;19.198;2024-03-02T19:56:42;101192.92;;;9.15;100.00
68712;BME280;55690;51.566;19.198;2024-03-02T20:00:48;101190.30;;;9.14;100.00
68712;BME280;55690;51.566;19.198;2024-03-02T20:04:54;101190.30;;;9.14;100.00
68712;BME280;55690;51.566;19.198;2024-03-02T20:09:01;101185.20;;;9.09;100.00
68712;BME280;55690;51.566;19.198;2024-03-02T20:13:07;101190.80;;;9.06;100.00
68712;BME280;55690;51.566;19.198;2024-03-02T20:17:14;101184.70;;;9.03;100.00
68712;BME280;55690;51.566;19.198;2024-03-02T20:21:19;101181.57;;;8.94;100.00
68712;BME280;55690;51.566;19.198;2024-03-02T20:25:25;101186.30;;;8.91;100.00
68712;BME280;55690;51.566;19.198;2024-03-02T20:29:32;101177.66;;;8.84;100.00
68712;BME280;55690;51.566;19.198;2024-03-02T20:33:38;101179.84;;;8.93;100.00
68712;BME280;55690;51.566;19.198;2024-03-02T20:37:44;101185.19;;;8.79;100.00
68712;BME280;55690;51.566;19.198;2024-03-02T20:41:50;101181.88;;;8.74;100.00
68712;BME280;55690;51.566;19.198;2024-03-02T20:45:56;101181.70;;;8.77;100.00
68712;BME280;55690;51.566;19.198;2024-03-02T20:50:05;101164.76;;;8.74;100.00
68712;BME280;55690;51.566;19.198;2024-03-02T20:54:09;101180.55;;;8.81;100.00
68712;BME280;55690;51.566;19.198;2024-03-02T20:58:15;101169.81;;;8.80;100.00
68712;BME280;55690;51.566;19.198;2024-03-02T21:02:21;101173.39;;;8.80;100.00
68712;BME280;55690;51.566;19.198;2024-03-02T21:06:27;101169.95;;;8.92;100.00
68712;BME280;55690;51.566;19.198;2024-03-02T21:10:33;101170.92;;;8.91;100.00
68712;BME280;55690;51.566;19.198;2024-03-02T21:14:39;101167.67;;;9.00;100.00
68712;BME280;55690;51.566;19.198;2024-03-02T21:18:46;101178.31;;;9.04;100.00
68712;BME280;55690;51.566;19.198;2024-03-02T21:22:52;101173.36;;;8.96;100.00